Pierces Chapel, Texas
Current Conditions -  °F | °C
As of 1:35 PM on Friday 24 Oct 2014 (Local Time) from KJSO Reporting Station
Clear Clear  
Wind Chill: 74°   Ceiling: Unl
Heat Index: 74°   Visibility: 10mi
Dew Point: 53°   Wind: 3mph
Humidity: 48%   Direction: 340°NNW
Pressure: 30.17"   Gusts: NA
Location:  31.9649°N, 95.3036°W
Report Text: KJSO 241835Z AUTO 34003KT 10SM CLR 23/12 A3017 RMK AO2 T02360119
Loading
Personal Weather Stations






























Interactive Weather Map
Tropical Storm Tracking
New forecast layout! Learn more

10-Day Weather Forecast

Advertisements
Track Severe Weather on mobile